Time;durP1;ratioP1;P1;durP2;ratioP2;P2;SDS_P1;SDS_P2;PMS_P1;PMS_P2;Temp;Humidity;BMP_temperature;BMP_pressure;BME280_temperature;BME280_humidity;BME280_pressure;Samples;Min_cycle;Max_cycle;Signal;HPM_P1;HPM_P2
2022/04/30 00:00:57;;;;;;;5.13;4.73;;;;;;;13.88;62.37;97069.97;5041234;28;20228;-52
2022/04/30 00:03:26;;;;;;;5.73;5.23;;;;;;;13.88;63.53;97079.75;5030371;28;20204;-54
2022/04/30 00:05:53;;;;;;;5.40;5.00;;;;;;;13.87;64.56;97084.22;5040661;28;20826;-52
2022/04/30 00:08:19;;;;;;;6.40;5.60;;;;;;;13.80;65.44;97080.53;5040067;28;20212;-55
2022/04/30 00:10:46;;;;;;;6.53;5.80;;;;;;;13.77;66.79;97080.81;5041501;28;20217;-55
2022/04/30 00:13:14;;;;;;;5.70;5.20;;;;;;;13.69;67.47;97090.53;5033359;28;20226;-54
2022/04/30 00:15:40;;;;;;;5.80;5.30;;;;;;;13.62;67.93;97079.69;5032633;28;20666;-55
2022/04/30 00:18:08;;;;;;;5.90;5.40;;;;;;;13.49;69.80;97094.31;5044276;28;20211;-54
2022/04/30 00:20:36;;;;;;;5.70;5.30;;;;;;;13.46;68.13;97082.19;5044101;28;20311;-53
2022/04/30 00:23:03;;;;;;;5.70;5.13;;;;;;;13.40;68.60;97085.41;5044031;28;20237;-51
2022/04/30 00:25:29;;;;;;;6.17;5.67;;;;;;;13.35;69.81;97085.03;5044032;28;20204;-51
2022/04/30 00:27:56;;;;;;;6.10;5.50;;;;;;;13.26;70.42;97077.94;5054315;28;20203;-53
2022/04/30 00:30:24;;;;;;;5.60;5.20;;;;;;;13.16;70.71;97078.00;5067948;28;20184;-53
2022/04/30 00:32:53;;;;;;;5.97;5.47;;;;;;;13.09;71.40;97076.06;5073219;28;20223;-53
2022/04/30 00:35:21;;;;;;;6.30;5.67;;;;;;;12.87;73.20;97072.81;5053947;28;20620;-55
2022/04/30 00:37:48;;;;;;;6.40;5.77;;;;;;;12.84;74.73;97073.13;5054106;28;20196;-56
2022/04/30 00:40:15;;;;;;;6.57;5.97;;;;;;;12.71;75.19;97071.78;5051777;28;20207;-55
2022/04/30 00:42:46;;;;;;;6.30;5.70;;;;;;;12.75;74.47;97063.34;5045261;28;20207;-53
2022/04/30 00:45:12;;;;;;;6.30;5.80;;;;;;;12.64;75.43;97060.91;5033627;28;20207;-53
2022/04/30 00:47:41;;;;;;;6.47;5.97;;;;;;;12.48;79.37;97055.38;5045076;28;20208;-53
2022/04/30 00:50:09;;;;;;;7.07;6.47;;;;;;;12.38;81.83;97057.22;5042235;28;20357;-53
2022/04/30 00:52:36;;;;;;;5.90;5.43;;;;;;;12.34;80.64;97055.84;5042818;28;20207;-51
2022/04/30 00:55:03;;;;;;;6.60;6.07;;;;;;;12.36;79.37;97053.88;5044200;28;20230;-54
2022/04/30 00:57:32;;;;;;;6.80;6.20;;;;;;;12.29;79.87;97055.44;5044270;28;20203;-55
2022/04/30 01:00:00;;;;;;;6.33;5.83;;;;;;;12.23;80.45;97056.00;5044001;28;20288;-54
2022/04/30 01:02:28;;;;;;;7.20;6.60;;;;;;;12.11;81.69;97062.47;5043038;28;20227;-55
2022/04/30 01:04:57;;;;;;;8.13;6.83;;;;;;;12.05;81.68;97063.00;5043589;28;20203;-55
2022/04/30 01:07:24;;;;;;;6.73;6.23;;;;;;;12.11;81.89;97054.50;5043314;28;20195;-53
2022/04/30 01:09:52;;;;;;;7.20;6.60;;;;;;;12.12;82.76;97061.44;5044151;28;20232;-54
2022/04/30 01:12:19;;;;;;;7.27;6.70;;;;;;;12.19;82.33;97054.59;5043987;28;20199;-53
2022/04/30 01:14:48;;;;;;;7.30;6.60;;;;;;;12.18;83.77;97064.41;5042383;28;20223;-56
2022/04/30 01:17:15;;;;;;;7.50;6.80;;;;;;;12.12;85.68;97058.81;5042931;28;20610;-55
2022/04/30 01:19:43;;;;;;;7.13;6.57;;;;;;;12.13;86.95;97049.88;5043268;28;20291;-54
2022/04/30 01:22:20;;;;;;;7.03;6.43;;;;;;;12.05;90.04;97049.75;5042729;28;20211;-54
2022/04/30 01:24:48;;;;;;;7.67;6.90;;;;;;;12.06;90.37;97051.44;5042513;28;20211;-55
2022/04/30 01:27:16;;;;;;;7.67;7.07;;;;;;;12.01;91.42;97051.84;5043850;28;20203;-55
2022/04/30 01:29:42;;;;;;;7.83;7.13;;;;;;;11.92;92.78;97055.34;5042845;28;20203;-53
2022/04/30 01:37:38;;;;;;;7.40;6.83;;;;;;;11.94;90.03;97045.44;5042906;28;20260;-54
2022/04/30 01:40:08;;;;;;;7.63;7.03;;;;;;;11.92;93.02;97042.94;5043900;28;20207;-53
2022/04/30 01:42:38;;;;;;;7.57;6.87;;;;;;;11.92;87.33;97048.25;5043544;28;20689;-53
2022/04/30 01:45:06;;;;;;;7.57;6.97;;;;;;;11.93;90.10;97052.56;5043883;28;20202;-54
2022/04/30 01:47:34;;;;;;;7.90;7.20;;;;;;;11.96;89.25;97054.94;5044378;28;20195;-55
2022/04/30 01:50:02;;;;;;;7.60;7.07;;;;;;;12.05;86.55;97047.09;5043328;28;20286;-55
2022/04/30 01:52:29;;;;;;;7.60;7.00;;;;;;;12.02;87.32;97042.09;5043013;28;20207;-56
2022/04/30 01:54:56;;;;;;;7.10;6.50;;;;;;;12.05;86.08;97037.34;5043410;28;20223;-56
2022/04/30 01:57:28;;;;;;;7.47;6.77;;;;;;;11.98;88.61;97047.66;5043264;28;20219;-55
2022/04/30 01:59:54;;;;;;;7.50;6.87;;;;;;;12.00;85.32;97044.91;5041273;28;20227;-56
2022/04/30 02:02:24;;;;;;;7.83;7.13;;;;;;;11.96;85.88;97047.00;5042665;28;20505;-54
2022/04/30 02:04:52;;;;;;;8.23;7.53;;;;;;;11.87;87.72;97055.78;5042923;28;20571;-54
2022/04/30 02:07:20;;;;;;;7.83;7.23;;;;;;;11.81;93.30;97052.84;5031236;28;20207;-54
2022/04/30 02:09:47;;;;;;;7.60;7.00;;;;;;;11.82;90.65;97049.25;5042597;28;20208;-54
2022/04/30 02:12:13;;;;;;;8.33;7.63;;;;;;;11.90;89.99;97044.06;5043047;28;20237;-54
2022/04/30 02:14:46;;;;;;;8.47;7.77;;;;;;;11.90;92.14;97049.38;5043617;28;20231;-55
2022/04/30 02:17:13;;;;;;;8.43;7.80;;;;;;;11.93;88.30;97046.44;5032201;28;20199;-56
2022/04/30 02:22:26;;;;;;;8.30;7.60;;;;;;;11.94;88.12;97035.69;5030001;28;20206;-55
2022/04/30 02:24:54;;;;;;;8.33;7.60;;;;;;;11.83;87.04;97033.19;5045521;28;20279;-57
2022/04/30 02:27:22;;;;;;;8.33;7.73;;;;;;;11.79;88.40;97026.50;5046152;28;20226;-55
2022/04/30 02:29:50;;;;;;;10.47;7.87;;;;;;;11.76;92.56;97033.91;5051385;28;20196;-56
2022/04/30 02:32:17;;;;;;;8.47;7.83;;;;;;;11.79;92.43;97037.13;5056502;28;20203;-55
2022/04/30 02:34:45;;;;;;;9.17;8.23;;;;;;;11.72;93.21;97033.34;5061645;28;20216;-55
2022/04/30 02:37:13;;;;;;;8.90;8.20;;;;;;;11.72;95.14;97035.16;5058387;28;20196;-56
2022/04/30 02:39:40;;;;;;;8.93;8.27;;;;;;;11.71;95.85;97036.97;5056913;28;20199;-56
2022/04/30 02:42:08;;;;;;;9.33;8.63;;;;;;;11.67;91.80;97024.09;5053137;28;20552;-57
2022/04/30 02:44:34;;;;;;;9.10;8.40;;;;;;;11.72;90.79;97032.50;5057337;28;20194;-55
2022/04/30 02:47:02;;;;;;;10.50;9.60;;;;;;;11.73;89.21;97037.66;5066182;28;20199;-54
2022/04/30 02:49:30;;;;;;;9.57;8.67;;;;;;;11.69;88.55;97030.94;5064811;28;20223;-53
2022/04/30 02:51:57;;;;;;;8.83;8.13;;;;;;;11.70;89.13;97031.75;5044630;28;20195;-53
2022/04/30 02:54:24;;;;;;;9.17;8.27;;;;;;;11.70;88.67;97022.00;5042150;28;20210;-54
2022/04/30 02:56:50;;;;;;;7.90;7.30;;;;;;;11.72;89.69;97021.91;5042031;28;20201;-53
2022/04/30 03:02:02;;;;;;;9.20;8.40;;;;;;;11.68;91.09;97020.50;5041308;28;20276;-54
2022/04/30 03:04:30;;;;;;;8.07;7.37;;;;;;;11.79;90.46;97021.22;5041699;28;20207;-52
2022/04/30 03:06:58;;;;;;;10.43;8.67;;;;;;;11.79;89.13;97021.22;5039012;28;20223;-51
2022/04/30 03:09:25;;;;;;;8.50;7.80;;;;;;;11.82;88.89;97020.09;5041438;28;20219;-50
2022/04/30 03:11:51;;;;;;;8.53;7.83;;;;;;;11.83;88.92;97017.28;5042203;28;20627;-50
2022/04/30 03:14:18;;;;;;;8.27;7.47;;;;;;;11.83;88.43;97019.94;5040685;28;20241;-51
2022/04/30 03:22:14;;;;;;;7.00;6.47;;;;;;;12.04;83.98;97008.34;5040393;28;20304;-52
2022/04/30 03:24:40;;;;;;;7.20;6.60;;;;;;;12.08;83.48;97010.53;5039765;28;20214;-52
2022/04/30 03:27:07;;;;;;;7.93;7.27;;;;;;;12.08;82.51;97013.19;5040458;28;20191;-51
2022/04/30 03:29:33;;;;;;;6.80;6.20;;;;;;;12.13;82.25;97010.13;5039738;28;20252;-51
2022/04/30 03:32:01;;;;;;;7.30;6.70;;;;;;;12.11;82.00;97010.28;5040320;28;20211;-51
2022/04/30 03:34:32;;;;;;;6.17;5.73;;;;;;;12.13;81.72;97010.13;5040185;28;20200;-51
2022/04/30 03:37:01;;;;;;;6.60;6.10;;;;;;;12.16;81.56;97002.72;5038668;28;20694;-51
2022/04/30 03:39:27;;;;;;;6.30;5.80;;;;;;;12.23;79.96;97002.97;5038982;28;20204;-51
2022/04/30 03:41:54;;;;;;;6.77;6.07;;;;;;;12.21;80.13;97010.25;5038652;28;20203;-51
2022/04/30 03:44:20;;;;;;;6.93;6.33;;;;;;;12.22;79.87;97009.28;5028989;28;20208;-51
2022/04/30 03:46:46;;;;;;;6.77;6.17;;;;;;;12.27;78.83;97007.00;5041698;28;20199;-51
2022/04/30 03:49:13;;;;;;;6.93;6.33;;;;;;;12.27;79.78;97014.97;5043778;28;20238;-51
2022/04/30 03:51:39;;;;;;;6.60;6.10;;;;;;;12.26;80.30;97007.97;5043756;28;20196;-51
2022/04/30 03:54:10;;;;;;;7.10;6.50;;;;;;;12.25;80.26;97007.16;5045238;28;20208;-50
2022/04/30 03:56:36;;;;;;;6.63;6.03;;;;;;;12.26;80.71;97007.97;5045023;28;20297;-51
2022/04/30 03:59:02;;;;;;;6.60;6.10;;;;;;;12.25;80.95;97011.63;5044934;28;20663;-50
2022/04/30 04:01:29;;;;;;;6.60;6.00;;;;;;;12.25;80.61;97016.94;5043288;28;20566;-50
2022/04/30 04:03:55;;;;;;;6.50;5.90;;;;;;;12.23;80.62;97014.41;5042931;28;20218;-51
2022/04/30 04:06:22;;;;;;;6.77;6.07;;;;;;;12.19;81.17;97010.38;5043234;28;20238;-51
2022/04/30 04:08:51;;;;;;;6.53;6.03;;;;;;;12.15;79.60;97013.47;5044127;28;20215;-50
2022/04/30 04:11:19;;;;;;;6.30;5.70;;;;;;;12.11;82.33;97020.03;5043913;28;20204;-51
2022/04/30 04:19:23;;;;;;;6.53;6.13;;;;;;;11.88;85.75;97025.66;5042401;28;20517;-51
2022/04/30 04:21:51;;;;;;;6.13;5.73;;;;;;;11.87;85.72;97026.63;5042320;28;20207;-51
2022/04/30 04:27:04;;;;;;;8.50;7.17;;;;;;;11.81;86.11;97029.84;5055865;28;20249;-51
2022/04/30 04:29:32;;;;;;;8.10;7.30;;;;;;;11.75;86.20;97033.06;5056221;28;20214;-51
2022/04/30 04:32:00;;;;;;;7.80;7.10;;;;;;;11.78;85.47;97039.88;5039354;28;20235;-52
2022/04/30 04:34:27;;;;;;;7.43;6.83;;;;;;;11.79;87.15;97037.13;5042276;28;20466;-51
2022/04/30 04:36:53;;;;;;;8.10;7.50;;;;;;;11.75;91.14;97038.38;5043265;28;20577;-52
2022/04/30 04:39:21;;;;;;;7.87;7.10;;;;;;;11.73;89.61;97044.75;5041969;28;20282;-51
2022/04/30 04:41:48;;;;;;;7.83;7.00;;;;;;;11.67;92.62;97043.50;5041712;28;20203;-50
2022/04/30 04:44:16;;;;;;;8.43;7.73;;;;;;;11.77;91.04;97051.47;5043435;28;20212;-51
2022/04/30 04:46:43;;;;;;;9.07;8.37;;;;;;;11.64;91.63;97051.72;5042107;28;20200;-52
2022/04/30 04:49:10;;;;;;;8.57;7.87;;;;;;;11.65;92.75;97052.56;5041182;28;20223;-51
2022/04/30 04:51:37;;;;;;;8.53;7.83;;;;;;;11.59;93.88;97058.38;5041518;28;20208;-51
2022/04/30 04:54:04;;;;;;;8.57;7.87;;;;;;;11.54;94.01;97055.34;5042177;28;20215;-51
2022/04/30 04:56:31;;;;;;;9.03;8.23;;;;;;;11.60;93.41;97054.78;5041397;28;20241;-50
2022/04/30 04:58:58;;;;;;;8.73;8.03;;;;;;;11.59;93.81;97056.59;5049561;28;20188;-52
2022/04/30 05:01:26;;;;;;;8.83;8.10;;;;;;;11.55;95.12;97049.88;5064957;28;20222;-51
2022/04/30 05:03:52;;;;;;;9.47;8.30;;;;;;;11.56;94.57;97045.44;5057761;28;20501;-51
2022/04/30 05:06:19;;;;;;;7.90;7.20;;;;;;;11.62;94.82;97056.31;5047541;28;20207;-51
2022/04/30 05:08:46;;;;;;;9.13;7.53;;;;;;;11.56;91.79;97051.56;5042888;28;20676;-51
2022/04/30 05:11:12;;;;;;;7.87;7.17;;;;;;;11.57;93.34;97061.19;5042975;28;20223;-51
2022/04/30 05:13:39;;;;;;;8.00;7.30;;;;;;;11.55;90.46;97055.19;5043726;28;20211;-51
2022/04/30 05:16:06;;;;;;;8.37;7.60;;;;;;;11.47;94.47;97057.72;5042802;28;20667;-51
2022/04/30 05:18:34;;;;;;;8.53;7.63;;;;;;;11.45;96.96;97054.34;5042590;28;20253;-50
2022/04/30 05:21:01;;;;;;;8.23;7.53;;;;;;;11.43;96.88;97057.16;5042111;28;20231;-51
2022/04/30 05:23:27;;;;;;;8.67;7.87;;;;;;;11.49;96.22;97061.03;5043373;28;20535;-50
2022/04/30 05:25:54;;;;;;;8.93;8.23;;;;;;;11.44;96.14;97058.81;5042853;28;20218;-51
2022/04/30 05:28:20;;;;;;;8.73;7.93;;;;;;;11.44;97.04;97072.03;5042711;28;20265;-52
2022/04/30 05:30:49;;;;;;;8.67;7.80;;;;;;;11.42;97.83;97065.22;5042240;28;20235;-51
2022/04/30 05:33:16;;;;;;;8.70;8.00;;;;;;;11.43;98.09;97072.19;5042493;28;20206;-51
2022/04/30 05:35:44;;;;;;;9.20;8.40;;;;;;;11.43;99.23;97077.50;5045928;28;20230;-51
2022/04/30 05:38:10;;;;;;;8.87;8.10;;;;;;;11.43;100.00;97077.50;5047963;28;20543;-51
2022/04/30 05:40:37;;;;;;;9.37;8.47;;;;;;;11.45;99.17;97064.94;5044247;28;20223;-51
2022/04/30 05:43:05;;;;;;;8.97;8.27;;;;;;;11.49;97.62;97071.63;5042156;28;20210;-52
2022/04/30 05:45:32;;;;;;;9.00;8.30;;;;;;;11.56;97.94;97078.06;5042209;28;20643;-51
2022/04/30 05:47:58;;;;;;;8.97;8.17;;;;;;;11.51;97.85;97082.94;5042727;28;20492;-52
2022/04/30 05:50:25;;;;;;;9.17;8.37;;;;;;;11.49;97.04;97082.22;5041353;28;20243;-51
2022/04/30 05:52:53;;;;;;;8.90;8.20;;;;;;;11.46;97.53;97077.22;5042269;28;20639;-51
2022/04/30 05:55:20;;;;;;;9.70;7.57;;;;;;;11.48;97.53;97080.56;5042013;28;20261;-51
2022/04/30 05:57:47;;;;;;;8.03;7.43;;;;;;;11.53;97.84;97088.94;5041554;28;20219;-52
2022/04/30 06:00:14;;;;;;;8.13;7.47;;;;;;;11.56;97.60;97083.34;5042706;28;20203;-51
2022/04/30 06:02:42;;;;;;;8.07;7.37;;;;;;;11.53;97.22;97088.09;5043137;28;20233;-51
2022/04/30 06:05:09;;;;;;;8.07;7.37;;;;;;;11.47;99.03;97089.50;5042937;28;21294;-51
2022/04/30 06:07:36;;;;;;;9.00;8.20;;;;;;;11.49;98.47;97090.19;5042680;28;20214;-51
2022/04/30 06:10:05;;;;;;;8.33;7.63;;;;;;;11.46;99.73;97098.41;5042304;28;20211;-52
2022/04/30 06:12:34;;;;;;;7.87;7.27;;;;;;;11.57;98.41;97095.63;5043353;28;20222;-51
2022/04/30 06:15:00;;;;;;;7.97;7.37;;;;;;;11.62;97.33;97093.38;5041930;28;20221;-52
2022/04/30 06:17:27;;;;;;;8.53;7.70;;;;;;;11.68;96.95;97098.16;5042110;28;20234;-52
2022/04/30 06:19:54;;;;;;;8.30;7.60;;;;;;;11.66;96.08;97089.50;5041621;28;20277;-51
2022/04/30 06:22:20;;;;;;;7.90;7.30;;;;;;;11.66;97.35;97093.94;5042538;28;20199;-51
2022/04/30 06:24:48;;;;;;;8.67;7.97;;;;;;;11.65;97.76;97087.00;5041737;28;20200;-51
2022/04/30 06:27:16;;;;;;;7.83;7.23;;;;;;;11.72;97.29;97096.94;5041963;28;20195;-51
2022/04/30 06:29:42;;;;;;;8.50;7.70;;;;;;;11.72;97.29;97094.28;5041877;28;20200;-51
2022/04/30 06:32:09;;;;;;;8.53;7.73;;;;;;;11.70;98.28;97090.06;5041874;28;20278;-51
2022/04/30 06:34:36;;;;;;;8.63;7.87;;;;;;;11.69;100.00;97091.06;5041716;28;20662;-51
2022/04/30 06:37:03;;;;;;;8.60;7.83;;;;;;;11.75;99.28;97088.72;5041709;28;20792;-51
2022/04/30 06:39:30;;;;;;;8.97;7.63;;;;;;;11.78;98.10;97088.44;5041629;28;20196;-51
2022/04/30 06:41:56;;;;;;;8.47;7.77;;;;;;;11.88;97.52;97085.75;5041248;28;20226;-52
2022/04/30 06:44:24;;;;;;;8.47;7.87;;;;;;;11.89;98.61;97093.59;5041082;28;20543;-51
2022/04/30 06:46:51;;;;;;;8.77;8.07;;;;;;;11.83;97.00;97091.47;5045801;28;20196;-51
2022/04/30 06:49:17;;;;;;;8.67;7.97;;;;;;;11.93;97.94;97087.03;5056753;28;20245;-51
2022/04/30 06:51:48;;;;;;;9.03;8.07;;;;;;;11.96;97.87;97086.75;5041995;28;20210;-51
2022/04/30 06:57:10;;;;;;;9.77;8.80;;;;;;;12.20;97.67;97096.06;5040604;28;20226;-51
2022/04/30 06:59:40;;;;;;;9.30;8.60;;;;;;;12.24;95.30;97097.44;5041400;28;20207;-51
2022/04/30 07:02:12;;;;;;;9.30;8.60;;;;;;;12.37;96.55;97096.16;5040861;28;20671;-51
2022/04/30 07:04:39;;;;;;;9.67;8.70;;;;;;;12.44;93.77;97101.72;5040757;28;20583;-52
2022/04/30 07:07:06;;;;;;;9.70;8.80;;;;;;;12.52;92.53;97098.38;5041882;28;20269;-52
2022/04/30 07:09:33;;;;;;;9.37;8.63;;;;;;;12.60;90.29;97096.69;5041472;28;20195;-51
2022/04/30 07:11:59;;;;;;;9.40;8.63;;;;;;;12.75;91.28;97099.69;5041103;28;20234;-51
2022/04/30 07:14:26;;;;;;;9.47;8.77;;;;;;;12.83;92.13;97097.97;5044334;28;20199;-51
2022/04/30 07:16:54;;;;;;;9.57;8.67;;;;;;;12.97;90.60;97092.19;5053720;28;20219;-51
2022/04/30 07:19:20;;;;;;;9.30;8.40;;;;;;;13.00;89.00;97100.84;5044694;28;20199;-51
2022/04/30 07:21:46;;;;;;;9.10;8.30;;;;;;;13.15;88.96;97099.41;5047880;28;20570;-51
2022/04/30 07:24:13;;;;;;;9.77;8.77;;;;;;;13.22;89.37;97098.66;5046121;28;20207;-51
2022/04/30 07:26:39;;;;;;;9.03;8.23;;;;;;;13.26;85.88;97107.16;5045543;28;20192;-52
2022/04/30 07:29:06;;;;;;;8.80;8.00;;;;;;;13.37;86.50;97102.50;5044651;28;20215;-52
2022/04/30 07:31:32;;;;;;;9.23;8.33;;;;;;;13.51;86.57;97101.16;5043527;28;20233;-52
2022/04/30 07:34:00;;;;;;;8.60;7.90;;;;;;;13.75;83.66;97103.22;5045026;28;20567;-52
2022/04/30 07:36:27;;;;;;;9.40;8.47;;;;;;;13.90;83.20;97105.19;5045454;28;20215;-52
2022/04/30 07:38:55;;;;;;;8.87;7.97;;;;;;;13.83;80.49;97104.13;5045187;28;20235;-52
2022/04/30 07:41:21;;;;;;;7.93;7.23;;;;;;;13.98;80.93;97106.25;5044643;28;20286;-50
2022/04/30 07:43:48;;;;;;;8.60;7.80;;;;;;;14.25;82.53;97099.00;5045022;28;20541;-51
2022/04/30 07:46:14;;;;;;;8.13;7.53;;;;;;;14.43;80.05;97101.66;5044997;28;20202;-51
2022/04/30 07:48:41;;;;;;;8.20;7.57;;;;;;;14.48;77.68;97099.38;5045530;28;20262;-51
2022/04/30 07:51:14;;;;;;;8.47;7.77;;;;;;;14.73;80.37;97098.53;5045594;28;20183;-52
2022/04/30 07:53:41;;;;;;;9.40;8.60;;;;;;;15.07;78.56;97100.38;5044994;28;20203;-51
2022/04/30 07:56:08;;;;;;;8.13;7.53;;;;;;;14.95;76.77;97097.13;5044069;28;20702;-51
2022/04/30 07:58:34;;;;;;;8.47;7.77;;;;;;;15.19;75.77;97099.09;5044667;28;20207;-51
2022/04/30 08:01:01;;;;;;;8.10;7.43;;;;;;;15.74;76.05;97094.94;5043928;28;21347;-51
2022/04/30 08:03:28;;;;;;;8.23;7.63;;;;;;;16.09;73.22;97103.66;5045015;28;20536;-50
2022/04/30 08:05:54;;;;;;;9.23;6.93;;;;;;;16.13;72.82;97099.66;5044507;28;20211;-50
2022/04/30 08:08:22;;;;;;;7.68;6.93;;;;;;;16.08;70.05;97096.69;5043875;28;20286;-50
2022/04/30 08:10:49;;;;;;;7.55;7.05;;;;;;;16.22;70.41;97093.34;5044468;28;20204;-51
2022/04/30 08:13:15;;;;;;;7.85;7.05;;;;;;;16.33;68.63;97091.16;5044358;28;20241;-50
2022/04/30 08:15:43;;;;;;;7.40;6.68;;;;;;;16.26;69.49;97097.34;5044323;28;20199;-51
2022/04/30 08:18:10;;;;;;;8.00;7.30;;;;;;;16.66;68.50;97093.81;5044809;28;20261;-51
2022/04/30 08:20:37;;;;;;;7.13;6.63;;;;;;;16.54;68.96;97095.16;5044341;28;20230;-50
2022/04/30 08:23:04;;;;;;;7.60;7.00;;;;;;;16.37;68.24;97094.31;5044353;28;20210;-50
2022/04/30 08:25:35;;;;;;;7.47;6.88;;;;;;;16.44;68.91;97095.31;5044893;28;20195;-50
2022/04/30 08:28:01;;;;;;;7.82;7.13;;;;;;;16.60;68.29;97102.50;5044605;28;20195;-51
2022/04/30 08:30:28;;;;;;;6.80;6.30;;;;;;;16.54;68.53;97092.47;5044108;28;20535;-51
2022/04/30 08:32:54;;;;;;;7.47;6.72;;;;;;;16.11;67.96;97099.84;5043119;28;20636;-51
2022/04/30 08:35:20;;;;;;;7.63;7.03;;;;;;;15.99;68.64;97097.66;5043720;28;20203;-52
2022/04/30 08:37:47;;;;;;;8.53;7.80;;;;;;;15.77;69.88;97099.13;5044757;28;20223;-51
2022/04/30 08:40:14;;;;;;;8.03;7.30;;;;;;;15.61;72.70;97107.09;5042364;28;20302;-51
2022/04/30 08:42:43;;;;;;;8.40;7.70;;;;;;;15.10;73.35;97094.72;5043958;28;20212;-51
2022/04/30 08:45:11;;;;;;;8.20;7.60;;;;;;;15.14;73.79;97096.06;5043967;28;20221;-51
2022/04/30 08:47:40;;;;;;;7.90;7.10;;;;;;;15.07;74.16;97095.88;5044047;28;20214;-51
2022/04/30 08:50:09;;;;;;;8.60;7.87;;;;;;;15.11;75.40;97101.72;5043187;28;20318;-50
2022/04/30 08:52:36;;;;;;;8.40;7.70;;;;;;;15.29;76.83;97099.81;5043714;28;20532;-51
2022/04/30 08:55:02;;;;;;;8.77;8.07;;;;;;;15.50;74.64;97097.56;5042551;28;20642;-51
2022/04/30 08:57:29;;;;;;;8.77;8.05;;;;;;;15.73;74.14;97095.94;5043265;28;20223;-51
2022/04/30 08:59:57;;;;;;;8.40;7.63;;;;;;;16.00;73.68;97096.66;5043986;28;20199;-51
2022/04/30 09:02:23;;;;;;;8.40;7.57;;;;;;;16.67;70.04;97088.31;5044532;28;20196;-51
2022/04/30 09:04:51;;;;;;;8.95;6.88;;;;;;;17.00;69.88;97085.56;5044649;28;20203;-51
2022/04/30 09:07:19;;;;;;;8.18;7.40;;;;;;;16.84;65.92;97095.28;5045372;28;20243;-51
2022/04/30 09:09:53;;;;;;;8.05;7.38;;;;;;;17.06;65.16;97092.88;5043864;28;20235;-52
2022/04/30 09:12:20;;;;;;;8.60;6.82;;;;;;;16.87;68.00;97088.75;5043560;28;20194;-49
2022/04/30 09:14:47;;;;;;;8.45;7.65;;;;;;;16.56;65.71;97096.69;5043840;28;20211;-50
2022/04/30 09:17:16;;;;;;;8.20;7.40;;;;;;;16.42;64.92;97086.66;5043175;28;20833;-50
2022/04/30 09:19:49;;;;;;;7.82;7.22;;;;;;;16.33;65.43;97095.69;5042833;28;20636;-50
2022/04/30 09:22:17;;;;;;;9.40;7.82;;;;;;;16.47;65.44;97088.81;5043553;28;20281;-50
2022/04/30 09:24:48;;;;;;;8.82;7.30;;;;;;;16.47;66.35;97080.81;5043020;28;20208;-50
2022/04/30 09:27:14;;;;;;;7.78;7.18;;;;;;;16.69;65.49;97083.63;5042671;28;20202;-50
2022/04/30 09:29:41;;;;;;;7.63;7.03;;;;;;;16.62;65.37;97085.31;5057522;28;20196;-50
2022/04/30 09:32:08;;;;;;;8.90;6.63;;;;;;;16.51;68.40;97071.47;5058503;28;20255;-50
2022/04/30 09:37:46;;;;;;;8.27;7.53;;;;;;;16.43;65.38;97070.47;5049094;28;20292;-50
2022/04/30 09:40:26;;;;;;;8.25;7.55;;;;;;;16.60;65.45;97071.31;5049146;28;20263;-51
2022/04/30 09:42:52;;;;;;;7.63;6.93;;;;;;;16.91;64.61;97063.38;5047651;28;20203;-52
2022/04/30 09:45:27;;;;;;;8.00;7.40;;;;;;;16.87;63.48;97068.22;5047152;28;20494;-50
2022/04/30 09:47:56;;;;;;;7.10;6.57;;;;;;;17.51;64.19;97066.28;5046843;28;20202;-51
2022/04/30 09:55:54;;;;;;;7.95;7.25;;;;;;;18.07;61.58;97048.19;5048468;28;20219;-51
2022/04/30 09:58:25;;;;;;;7.15;6.57;;;;;;;18.51;59.58;97049.19;5049340;28;20227;-51
2022/04/30 10:00:55;;;;;;;7.55;6.88;;;;;;;19.34;56.46;97047.03;5051199;28;20198;-51
2022/04/30 10:03:25;;;;;;;7.50;6.97;;;;;;;19.62;57.03;97043.69;5047533;28;20207;-52
2022/04/30 10:06:00;;;;;;;7.57;6.78;;;;;;;19.85;53.01;97034.44;5048315;28;20628;-53
2022/04/30 10:08:35;;;;;;;7.20;6.60;;;;;;;20.06;52.81;97032.75;5048610;28;20207;-53
2022/04/30 10:11:18;;;;;;;8.35;7.55;;;;;;;19.68;52.80;97030.34;5049119;28;20206;-52
2022/04/30 10:13:57;;;;;;;7.10;6.60;;;;;;;18.95;55.17;97029.63;5031715;28;20204;-51
2022/04/30 10:16:28;;;;;;;7.63;6.97;;;;;;;18.52;54.29;97023.22;5042144;28;20199;-52
2022/04/30 10:19:10;;;;;;;6.97;6.38;;;;;;;19.11;54.10;97024.03;5041782;28;20196;-51
2022/04/30 10:21:38;;;;;;;6.88;6.38;;;;;;;19.62;54.31;97017.69;5042085;28;20277;-52
2022/04/30 10:24:06;;;;;;;6.03;5.63;;;;;;;19.57;52.57;97020.09;5042449;28;20199;-51
2022/04/30 10:26:33;;;;;;;7.15;6.65;;;;;;;19.49;51.01;97022.06;5041584;28;20207;-51
2022/04/30 10:29:01;;;;;;;27.20;24.58;;;;;;;19.56;50.69;97007.69;5041956;28;20199;-54
2022/04/30 10:31:27;;;;;;;8.55;7.80;;;;;;;19.76;50.12;97013.28;5042225;28;20218;-52
2022/04/30 10:33:54;;;;;;;6.90;6.35;;;;;;;19.45;50.75;97005.50;5041746;28;20211;-53
2022/04/30 10:36:21;;;;;;;6.93;6.32;;;;;;;18.95;55.48;97008.19;5041414;28;20222;-52
2022/04/30 10:38:59;;;;;;;7.28;6.53;;;;;;;18.85;52.21;97003.91;5041467;28;20249;-52
2022/04/30 10:41:25;;;;;;;6.90;6.20;;;;;;;18.93;53.08;97004.84;5041501;28;20194;-52
2022/04/30 10:44:00;;;;;;;7.00;6.40;;;;;;;18.83;54.49;96997.91;5040657;28;20552;-52
2022/04/30 10:46:26;;;;;;;7.32;6.20;;;;;;;19.24;53.85;96997.38;5041530;28;20607;-52
2022/04/30 10:48:53;;;;;;;7.22;6.68;;;;;;;19.03;52.83;96997.34;5041766;28;20231;-52
2022/04/30 10:51:33;;;;;;;8.60;7.60;;;;;;;19.04;53.98;96990.97;5041820;28;20202;-53
2022/04/30 10:54:01;;;;;;;7.38;6.78;;;;;;;19.02;53.32;96996.53;5040982;28;20202;-52
2022/04/30 10:56:28;;;;;;;7.00;6.40;;;;;;;18.85;52.82;96990.50;5041851;28;20199;-54
2022/04/30 10:58:56;;;;;;;7.45;6.68;;;;;;;18.49;54.26;96981.56;5055127;28;20219;-54
2022/04/30 11:01:23;;;;;;;7.45;6.85;;;;;;;18.41;54.98;96981.63;5050871;28;20229;-54
2022/04/30 11:03:50;;;;;;;7.30;6.70;;;;;;;18.17;54.84;96984.56;5051092;28;20212;-55
2022/04/30 11:06:22;;;;;;;7.32;6.75;;;;;;;18.83;52.82;96978.31;5053298;28;20198;-54
2022/04/30 11:08:57;;;;;;;7.22;6.65;;;;;;;19.16;53.68;96976.06;5052804;28;20229;-52
2022/04/30 11:11:25;;;;;;;7.35;6.75;;;;;;;19.51;52.09;96972.56;5050673;28;20631;-52
2022/04/30 11:14:04;;;;;;;7.35;6.75;;;;;;;19.85;48.74;96967.31;5041428;28;20203;-51
2022/04/30 11:16:33;;;;;;;6.40;5.90;;;;;;;19.35;50.60;96962.03;5041638;28;20198;-52
2022/04/30 11:19:01;;;;;;;6.50;6.00;;;;;;;19.86;50.50;96960.94;5041128;28;20263;-53
2022/04/30 11:21:35;;;;;;;7.43;6.38;;;;;;;20.05;49.06;96959.44;5040881;28;20199;-52
2022/04/30 11:24:04;;;;;;;6.53;6.03;;;;;;;20.26;48.82;96953.22;5040954;28;20670;-51
2022/04/30 11:26:36;;;;;;;7.47;6.78;;;;;;;20.38;45.27;96946.28;5041827;28;20265;-52
2022/04/30 11:29:07;;;;;;;7.03;6.53;;;;;;;20.64;47.80;96942.94;5041744;28;20196;-52
2022/04/30 11:31:34;;;;;;;6.78;6.18;;;;;;;21.02;44.36;96943.31;5042170;28;20203;-52
2022/04/30 11:34:08;;;;;;;6.38;5.78;;;;;;;21.09;44.92;96936.09;5041261;28;20196;-52
2022/04/30 11:36:38;;;;;;;6.60;6.10;;;;;;;21.07;44.70;96944.38;5042050;28;20192;-51
2022/04/30 11:39:05;;;;;;;6.65;6.05;;;;;;;21.30;44.85;96938.69;5041388;28;20203;-50
2022/04/30 11:41:38;;;;;;;6.72;6.13;;;;;;;21.64;44.46;96929.66;5042152;28;20570;-53
2022/04/30 11:44:05;;;;;;;6.63;6.07;;;;;;;21.31;45.32;96929.59;5046054;28;20214;-53
2022/04/30 11:46:32;;;;;;;7.50;6.80;;;;;;;20.77;43.10;96927.69;5058545;28;20208;-51
2022/04/30 11:49:00;;;;;;;6.95;6.28;;;;;;;20.41;45.45;96948.56;5048812;28;20254;-52
2022/04/30 11:51:28;;;;;;;8.50;7.70;;;;;;;19.46;48.50;96952.69;5044648;28;20216;-54
2022/04/30 11:53:55;;;;;;;8.35;7.72;;;;;;;18.79;49.77;96966.31;5041962;28;20597;-53
2022/04/30 11:56:22;;;;;;;6.80;6.20;;;;;;;17.97;49.86;96961.97;5040871;28;20207;-52
2022/04/30 11:58:49;;;;;;;5.97;5.47;;;;;;;17.23;51.12;96967.03;5041708;28;20586;-52
2022/04/30 12:01:23;;;;;;;5.70;5.15;;;;;;;16.96;51.38;96959.50;5041695;28;20192;-53
2022/04/30 12:03:55;;;;;;;4.45;4.15;;;;;;;16.77;51.12;96976.78;5041507;28;20230;-53
2022/04/30 12:06:24;;;;;;;4.70;4.38;;;;;;;16.57;53.54;96970.19;5041776;28;20203;-53
2022/04/30 12:08:50;;;;;;;4.20;3.90;;;;;;;16.43;52.42;96974.38;5048186;28;20212;-51
2022/04/30 12:11:17;;;;;;;4.60;4.30;;;;;;;16.06;52.30;96967.94;5044464;28;20199;-51
2022/04/30 12:13:44;;;;;;;4.38;4.07;;;;;;;15.94;53.86;96968.28;5044129;28;20211;-50